Airfield :
LOGIN :

Register | Disclaimer

   EN    FR    IT 

 










Legend :    VFR   Marginal VFR   IFR   Intensive IFR   Very Intensive IFR
Visi :
Ceiling :
>= 8 km
>= 3000ft
5 to 8 km
1000 to 3000 ft
1500m to 5 km
500 to 1000 ft
800 to 1500m
200 to 500 ft
< 800m
< 200 ft
Symbols :   Thunderstorms  Fog  Heavy snow  Heavy precipitations  Wind > 20 kt
SIGMETs :     Misc.  Thunderstorms  Icing  Turbulence  Mountain Waves  Volcanic Ashes







- Airport Elevation : 665 ft
- IATA code : NOC


EIKN - Connaught / Knock- Ireland West

CURRENT METAR :
  • 201900Z 30006KT 9999 FEW035 SCT250 03/01 Q1026 NOSIG

EXPIRED METARs :
  • 201830Z 31005KT 9999 FEW035 SCT250 03/01 Q1026 NOSIG
  • 201800Z 30005KT 9999 FEW018 SCT250 03/01 Q1025 NOSIG
  • 201730Z 29004KT 9999 FEW016 SCT250 03/01 Q1025 NOSIG
  • 201700Z 29004KT 9999 FEW016 SCT250 03/02 Q1025 NOSIG
  • 201630Z 29004KT 9999 FEW015 SCT250 04/02 Q1025 NOSIG

TAF TAF EIKN
Valid from the 20 at 18:00 until the 21 at 18:00 UTC


201700Z 2018/2118 27006KT 9999 FEW015 SCT050
BECMG 2021/2024 22005KT
BECMG 2102/2105 18008KT
BECMG 2107/2110 18014KT 5000 -RA BKN008
TEMPO 2110/2115 18016G28KT 2000 RA BKN005
BECMG 2115/2118 25012KT NSW BKN020
No reported NOTAMs for that airfield.



MET'MAP, your aeronautical weather chart ! - Copyright ORBIFLY December 2007 - Disclaimer

ORBIFLY MET'MAP TEAM :

Programming & Development : Alexandra Zaïnal
Concept & Development : Baudouin d'Aumeries
Co-Development & Prog : Marc-Olivier Méhu
Technical & hardware support : Manuel Goepfert

Contact : metmap@orbifly.com




SOURCES & CREDITS :

   NOAA